Time;durP1;ratioP1;P1;durP2;ratioP2;P2;SDS_P1;SDS_P2;PMS_P1;PMS_P2;Temp;Humidity;BMP_temperature;BMP_pressure;BME280_temperature;BME280_humidity;BME280_pressure;Samples;Min_cycle;Max_cycle;Signal;HPM_P1;HPM_P2
2021/04/11 00:02:20;;;;;;;6.40;1.85;;;;;;;11.52;55.28;98364.22;5054263;28;20493;-82
2021/04/11 00:04:47;;;;;;;3.97;2.55;;;;;;;11.39;55.18;98353.31;5072584;28;20381;-82
2021/04/11 00:07:14;;;;;;;4.63;2.50;;;;;;;11.49;54.88;98368.19;5072290;28;20060;-82
2021/04/11 00:09:46;;;;;;;3.38;1.90;;;;;;;11.41;55.00;98362.09;5073133;28;20091;-82
2021/04/11 00:12:15;;;;;;;3.33;2.13;;;;;;;11.35;55.02;98347.47;5071504;28;20496;-82
2021/04/11 00:14:42;;;;;;;5.65;2.20;;;;;;;11.43;55.83;98366.31;5071596;28;20562;-82
2021/04/11 00:17:11;;;;;;;3.08;2.10;;;;;;;11.18;55.27;98347.03;5072438;28;20048;-82
2021/04/11 00:19:41;;;;;;;2.87;1.93;;;;;;;11.31;55.35;98349.75;5070533;28;20048;-82
2021/04/11 00:22:18;;;;;;;2.75;1.83;;;;;;;11.18;55.55;98357.09;5072466;28;20345;-83
2021/04/11 00:24:45;;;;;;;3.90;2.50;;;;;;;11.06;56.37;98344.09;5071092;28;20094;-83
2021/04/11 00:27:12;;;;;;;6.30;2.58;;;;;;;11.06;57.26;98362.31;5072281;28;20057;-83
2021/04/11 00:29:53;;;;;;;4.20;2.03;;;;;;;10.93;57.53;98344.94;5068805;28;20049;-82
2021/04/11 00:32:20;;;;;;;9.15;2.38;;;;;;;10.90;58.41;98360.81;5060885;28;20052;-83
2021/04/11 00:34:59;;;;;;;;;;;;;;;;;;;;;
2021/04/11 00:37:26;;;;;;;2.97;1.92;;;;;;;10.78;57.89;98364.16;5071132;28;20047;-83
2021/04/11 00:39:54;;;;;;;4.72;2.50;;;;;;;10.80;57.49;98356.63;5072722;28;20053;-83
2021/04/11 00:42:29;;;;;;;7.15;2.75;;;;;;;10.75;59.47;98361.03;5072082;28;20044;-82
2021/04/11 00:45:09;;;;;;;4.10;1.90;;;;;;;10.44;58.15;98343.34;5070552;28;20041;-82
2021/04/11 00:47:36;;;;;;;5.93;3.00;;;;;;;10.51;59.29;98356.94;5071435;28;20040;-83
2021/04/11 00:50:05;;;;;;;4.22;2.17;;;;;;;10.39;59.64;98352.13;5073382;28;20775;-82
2021/04/11 00:52:31;;;;;;;3.33;2.23;;;;;;;10.40;59.23;98361.09;5074008;28;20055;-82
2021/04/11 00:55:00;;;;;;;6.93;2.30;;;;;;;10.31;59.00;98360.41;5072572;28;20282;-82
2021/04/11 00:57:27;;;;;;;4.18;2.22;;;;;;;10.14;59.62;98338.19;5053754;28;20063;-82
2021/04/11 00:59:53;;;;;;;3.33;2.03;;;;;;;10.13;58.89;98354.69;5071362;28;20051;-82
2021/04/11 01:02:20;;;;;;;3.22;2.00;;;;;;;10.09;58.94;98349.66;5071575;28;20121;-82
2021/04/11 01:04:49;;;;;;;5.25;2.00;;;;;;;9.85;59.40;98326.56;5070268;28;20531;-82
2021/04/11 01:07:17;;;;;;;5.32;2.10;;;;;;;9.85;59.48;98326.56;5071715;28;20044;-82
2021/04/11 01:09:46;;;;;;;4.47;2.05;;;;;;;9.73;59.89;98328.19;5070814;28;20107;-82
2021/04/11 01:12:17;;;;;;;5.75;2.05;;;;;;;9.79;59.58;98330.09;5071632;28;20048;-82
2021/04/11 01:14:45;;;;;;;6.50;1.83;;;;;;;9.86;59.36;98336.41;5071086;28;20045;-83
2021/04/11 01:17:13;;;;;;;2.60;1.55;;;;;;;9.80;59.44;98333.63;5070748;28;20139;-83
2021/04/11 01:19:41;;;;;;;7.05;2.15;;;;;;;9.76;58.86;98341.34;5067349;28;20517;-83
2021/04/11 01:22:22;;;;;;;4.32;1.90;;;;;;;9.76;58.72;98335.94;5070658;28;20051;-83
2021/04/11 01:24:56;;;;;;;6.18;2.03;;;;;;;9.90;58.00;98332.22;5071024;28;20055;-83
2021/04/11 01:27:27;;;;;;;3.47;2.10;;;;;;;9.90;58.22;98320.53;5069348;28;20101;-83
2021/04/11 01:29:55;;;;;;;3.17;2.00;;;;;;;9.81;59.08;98327.19;5071593;28;20052;-83
2021/04/11 01:32:25;;;;;;;4.78;2.00;;;;;;;9.78;58.87;98311.28;5070830;28;20040;-83
2021/04/11 01:34:53;;;;;;;3.25;1.70;;;;;;;9.68;59.24;98319.78;5069702;28;20045;-83
2021/04/11 01:37:22;;;;;;;3.35;2.05;;;;;;;9.68;59.85;98322.50;5061647;28;20521;-83
2021/04/11 01:39:51;;;;;;;3.33;1.98;;;;;;;9.46;59.57;98300.88;5071465;28;20504;-83
2021/04/11 01:42:22;;;;;;;3.67;2.03;;;;;;;9.70;59.49;98318.56;5070523;28;20053;-83
2021/04/11 01:44:54;;;;;;;3.72;1.90;;;;;;;9.63;59.94;98314.97;5070094;28;20110;-83
2021/04/11 01:47:21;;;;;;;4.13;2.08;;;;;;;9.48;60.45;98300.69;5071499;28;20370;-83
2021/04/11 01:49:47;;;;;;;7.22;2.55;;;;;;;9.49;60.59;98305.91;5069614;28;20049;-81
2021/04/11 01:52:24;;;;;;;2.72;2.00;;;;;;;9.47;61.20;98317.97;5071343;28;20060;-82
2021/04/11 01:54:52;;;;;;;5.53;2.00;;;;;;;9.42;61.05;98310.44;5065379;28;20051;-82
2021/04/11 01:57:22;;;;;;;2.75;1.65;;;;;;;9.33;61.24;98309.78;5071345;28;20047;-83
2021/04/11 01:59:49;;;;;;;;;;;;;;;9.37;61.54;98307.50;5070493;28;20044;-83
2021/04/11 02:02:18;;;;;;;5.50;2.10;;;;;;;9.39;61.21;98309.00;5070633;28;20285;-82
2021/04/11 02:04:44;;;;;;;4.30;2.13;;;;;;;9.43;60.84;98312.13;5070714;28;20052;-83
2021/04/11 02:07:12;;;;;;;6.68;2.00;;;;;;;9.47;60.59;98296.28;5070342;28;20059;-82
2021/04/11 02:09:46;;;;;;;2.78;1.95;;;;;;;9.42;60.82;98290.63;5061316;28;20413;-82
2021/04/11 02:12:14;;;;;;;3.70;1.95;;;;;;;9.59;60.29;98302.00;5069828;28;20405;-82
2021/04/11 02:14:43;;;;;;;4.78;1.88;;;;;;;9.66;59.88;98305.59;5050680;28;20057;-81
2021/04/11 02:30:45;;;;;;;3.45;2.20;;;;;;;9.65;60.72;98304.75;5070335;28;20039;-82
2021/04/11 02:33:11;;;;;;;3.08;2.03;;;;;;;9.62;61.29;98312.44;5070164;28;20053;-81
2021/04/11 02:35:38;;;;;;;4.03;2.42;;;;;;;9.50;61.96;98304.88;5069797;28;20532;-81
2021/04/11 02:38:09;;;;;;;4.60;2.10;;;;;;;9.50;62.02;98294.03;5069777;28;20047;-82
2021/04/11 02:40:38;;;;;;;3.33;2.22;;;;;;;9.50;62.23;98301.31;5060528;28;20036;-82
2021/04/11 02:43:10;;;;;;;4.57;1.80;;;;;;;9.61;60.79;98308.06;5064172;28;20051;-81
2021/04/11 02:45:39;;;;;;;3.53;2.05;;;;;;;9.73;59.22;98307.28;5075746;28;20477;-82
2021/04/11 02:48:10;;;;;;;2.38;1.70;;;;;;;9.66;61.32;98297.44;5075955;28;20059;-82
2021/04/11 02:50:39;;;;;;;3.58;1.77;;;;;;;9.67;61.11;98310.00;5074950;28;20040;-82
2021/04/11 02:53:10;;;;;;;5.82;2.22;;;;;;;9.66;61.95;98308.31;5062643;28;20489;-82
2021/04/11 02:55:40;;;;;;;5.47;2.40;;;;;;;9.62;61.98;98293.44;5075184;28;20485;-81
2021/04/11 02:58:08;;;;;;;6.47;1.98;;;;;;;9.44;62.36;98289.41;5071108;28;20101;-82
2021/04/11 03:00:38;;;;;;;9.20;2.08;;;;;;;9.47;62.58;98293.56;5064695;28;20413;-82
2021/04/11 03:03:05;;;;;;;4.80;2.10;;;;;;;9.34;63.35;98287.03;5056140;28;20053;-82
2021/04/11 03:05:32;;;;;;;3.10;2.50;;;;;;;9.40;63.28;98304.38;5055174;28;20052;-79
2021/04/11 03:08:02;;;;;;;3.80;1.95;;;;;;;9.36;63.34;98290.41;5055680;28;20060;-82
2021/04/11 03:10:34;;;;;;;3.42;1.83;;;;;;;9.38;63.46;98284.78;5070260;28;20044;-82
2021/04/11 03:13:02;;;;;;;4.75;1.95;;;;;;;9.44;63.47;98288.53;5075436;28;20044;-82
2021/04/11 03:15:29;;;;;;;8.13;2.45;;;;;;;9.37;63.82;98275.78;5061037;28;20056;-82
2021/04/11 03:17:56;;;;;;;2.20;1.60;;;;;;;9.26;63.06;98272.78;5068633;28;20040;-81
2021/04/11 03:20:27;;;;;;;4.10;1.80;;;;;;;9.52;61.69;98289.22;5067548;28;20455;-82
2021/04/11 03:22:57;;;;;;;2.33;1.50;;;;;;;9.59;61.54;98289.28;5055567;28;20049;-82
2021/04/11 03:25:27;;;;;;;3.28;1.73;;;;;;;9.65;60.78;98255.91;5062112;28;20052;-82
2021/04/11 03:27:59;;;;;;;5.88;1.98;;;;;;;9.81;61.39;98268.28;5059963;28;20123;-82
2021/04/11 03:30:30;;;;;;;3.42;1.90;;;;;;;9.73;61.96;98249.47;5068426;28;20488;-82
2021/04/11 03:33:02;;;;;;;4.95;1.90;;;;;;;9.74;63.57;98270.16;5058502;28;20045;-82
2021/04/11 03:35:32;;;;;;;5.28;2.05;;;;;;;9.68;63.92;98270.94;5054320;28;20073;-82
2021/04/11 03:38:01;;;;;;;;;;;;;;;9.61;66.32;98270.91;5055376;28;20475;-82
2021/04/11 03:40:31;;;;;;;3.33;1.83;;;;;;;9.60;65.90;98268.41;5059926;28;19920;-82
2021/04/11 03:43:03;;;;;;;2.10;1.60;;;;;;;9.61;64.34;98261.94;5075250;28;20048;-82
2021/04/11 03:45:31;;;;;;;8.77;2.08;;;;;;;9.61;64.49;98268.19;5063389;28;20396;-81
2021/04/11 03:48:04;;;;;;;2.10;1.20;;;;;;;9.67;64.82;98277.41;5074926;28;20114;-81
2021/04/11 03:50:35;;;;;;;6.70;1.42;;;;;;;9.47;64.59;98253.72;5072481;28;20143;-81
2021/04/11 03:53:07;;;;;;;3.88;1.70;;;;;;;9.62;64.80;98279.88;5067765;28;20421;-82
2021/04/11 03:55:38;;;;;;;2.25;1.50;;;;;;;9.54;64.29;98272.75;5054132;28;20053;-82
2021/04/11 03:58:10;;;;;;;2.28;1.67;;;;;;;9.58;64.46;98279.47;5064613;28;20113;-81
2021/04/11 04:00:42;;;;;;;3.90;1.48;;;;;;;9.49;65.67;98272.53;5074873;28;20052;-82
2021/04/11 04:03:13;;;;;;;2.85;1.30;;;;;;;9.44;64.83;98264.97;5072841;28;20447;-81
2021/04/11 04:05:40;;;;;;;3.65;1.80;;;;;;;9.41;65.25;98278.09;5068332;28;20041;-82
2021/04/11 04:08:08;;;;;;;2.80;1.85;;;;;;;9.42;64.90;98277.88;5074673;28;20049;-81
2021/04/11 04:10:38;;;;;;;2.70;1.70;;;;;;;9.41;63.52;98268.09;5054440;28;20052;-81
2021/04/11 04:13:09;;;;;;;3.28;1.70;;;;;;;9.28;64.77;98281.56;5070198;28;20056;-85
2021/04/11 04:15:46;;;;;;;2.65;1.67;;;;;;;9.31;63.94;98279.28;5073935;28;20044;-82
2021/04/11 04:18:40;;;;;;;2.97;1.60;;;;;;;9.46;63.66;98284.59;5065848;28;20052;-82
2021/04/11 04:21:17;;;;;;;4.10;1.98;;;;;;;9.23;64.25;98276.75;5070126;28;20048;-82
2021/04/11 04:23:52;;;;;;;2.40;1.60;;;;;;;9.12;65.07;98285.41;5056399;28;20053;-82
2021/04/11 04:26:34;;;;;;;4.18;1.63;;;;;;;9.08;66.55;98297.66;5060759;28;20106;-82
2021/04/11 04:29:13;;;;;;;6.72;2.47;;;;;;;8.87;66.36;98272.28;5066180;28;20055;-82
2021/04/11 04:31:56;;;;;;;3.50;1.93;;;;;;;8.97;66.48;98272.81;5070454;28;20147;-82
2021/04/11 04:34:31;;;;;;;3.97;2.22;;;;;;;9.02;66.66;98292.00;5058147;28;20052;-81
2021/04/11 04:37:11;;;;;;;4.70;2.25;;;;;;;8.86;66.26;98273.31;5073670;28;20474;-82
2021/04/11 04:39:50;;;;;;;3.35;2.03;;;;;;;9.14;65.57;98291.50;5074154;28;20049;-82
2021/04/11 04:42:22;;;;;;;3.37;2.27;;;;;;;9.01;65.94;98275.94;5069197;28;20048;-82
2021/04/11 04:45:02;;;;;;;4.30;2.50;;;;;;;9.02;66.77;98293.91;5061562;28;20299;-82
2021/04/11 05:00:32;;;;;;;5.32;2.22;;;;;;;8.90;67.59;98290.00;5073245;28;20082;-82
2021/04/11 05:03:04;;;;;;;4.72;2.30;;;;;;;8.80;68.15;98272.22;5055659;28;20052;-84
2021/04/11 05:05:32;;;;;;;4.88;2.20;;;;;;;8.88;69.67;98286.69;5066619;28;20106;-82
2021/04/11 05:08:04;;;;;;;5.80;2.08;;;;;;;8.82;70.17;98288.28;5071219;28;20052;-83
2021/04/11 05:10:36;;;;;;;4.18;2.10;;;;;;;8.80;69.87;98284.94;5067001;28;20416;-83
2021/04/11 05:13:07;;;;;;;6.15;3.13;;;;;;;8.79;70.37;98296.81;5052500;28;20040;-83
2021/04/11 05:15:42;;;;;;;2.65;1.70;;;;;;;8.75;69.73;98280.09;5062196;28;20509;-83
2021/04/11 05:18:15;;;;;;;3.58;2.10;;;;;;;8.66;69.44;98284.00;5070376;28;20087;-83
2021/04/11 05:20:46;;;;;;;4.03;2.20;;;;;;;8.76;68.90;98273.66;5071234;28;20056;-83
2021/04/11 05:23:23;;;;;;;2.67;2.10;;;;;;;8.90;69.25;98296.28;5073322;28;20538;-83
2021/04/11 05:25:53;;;;;;;3.08;2.03;;;;;;;8.85;69.17;98279.75;5066738;28;20056;-83
2021/04/11 05:28:23;;;;;;;;;;;;;;;9.06;68.78;98300.56;5057324;28;20056;-83
2021/04/11 05:30:58;;;;;;;5.80;2.20;;;;;;;8.92;69.28;98274.41;5072960;28;20288;-83
2021/04/11 05:33:25;;;;;;;4.90;2.30;;;;;;;9.00;69.30;98293.22;5072662;28;20501;-83
2021/04/11 05:36:00;;;;;;;4.15;2.60;;;;;;;9.12;68.80;98299.81;5072165;28;20052;-83
2021/04/11 05:38:36;;;;;;;4.38;2.22;;;;;;;9.09;69.48;98288.50;5062766;28;20048;-82
2021/04/11 05:41:07;;;;;;;3.17;2.20;;;;;;;9.24;68.45;98297.38;5059578;28;20089;-82
2021/04/11 05:43:39;;;;;;;5.20;1.90;;;;;;;9.37;67.91;98285.81;5064387;28;20053;-84
2021/04/11 05:46:13;;;;;;;2.92;2.00;;;;;;;9.50;68.47;98298.59;5069747;28;20049;-83
2021/04/11 05:48:47;;;;;;;4.85;2.05;;;;;;;9.64;68.25;98277.81;5068640;28;20107;-84
2021/04/11 05:51:19;;;;;;;7.45;3.22;;;;;;;9.85;67.32;98279.59;5060828;28;20045;-83
2021/04/11 05:53:49;;;;;;;2.67;1.63;;;;;;;10.26;65.43;98287.66;5072827;28;20087;-83
2021/04/11 05:56:21;;;;;;;2.20;1.67;;;;;;;10.39;64.51;98272.50;5071252;28;20048;-82
2021/04/11 05:58:53;;;;;;;1.70;1.30;;;;;;;10.57;62.26;98286.31;5063397;28;20056;-83
2021/04/11 06:01:24;;;;;;;5.05;1.65;;;;;;;10.68;61.66;98276.72;5068077;28;20052;-82
2021/04/11 06:03:55;;;;;;;3.22;1.90;;;;;;;10.86;61.34;98278.81;5072002;28;20055;-83
2021/04/11 06:06:28;;;;;;;1.77;1.33;;;;;;;11.19;60.56;98278.00;5063176;28;20040;-83
2021/04/11 06:09:10;;;;;;;2.13;1.40;;;;;;;11.24;60.28;98263.75;5070812;28;20413;-82
2021/04/11 06:11:42;;;;;;;2.22;1.30;;;;;;;11.55;59.51;98286.72;5059821;28;20051;-83
2021/04/11 06:14:19;;;;;;;3.65;1.50;;;;;;;11.49;59.52;98263.94;5055537;28;20049;-82
2021/04/11 06:16:54;;;;;;;3.33;1.33;;;;;;;11.78;58.13;98273.47;5063678;28;20048;-83
2021/04/11 06:19:28;;;;;;;2.90;2.28;;;;;;;12.06;57.25;98280.53;5052538;28;20068;-83
2021/04/11 06:22:04;;;;;;;2.03;1.33;;;;;;;12.14;57.33;98274.81;5063651;28;20052;-83
2021/04/11 06:24:55;;;;;;;4.22;1.63;;;;;;;12.19;57.25;98258.69;5072222;28;20052;-83
2021/04/11 06:27:32;;;;;;;2.22;1.38;;;;;;;12.23;57.72;98258.22;5060368;28;20525;-82
2021/04/11 06:30:05;;;;;;;9.77;1.80;;;;;;;12.51;56.41;98279.66;5056257;28;20041;-83
2021/04/11 06:32:39;;;;;;;4.40;1.73;;;;;;;12.52;55.57;98273.16;5063871;28;20068;-82
2021/04/11 06:35:11;;;;;;;4.82;1.50;;;;;;;12.47;56.61;98271.09;5071858;28;20043;-83
2021/04/11 06:37:40;;;;;;;2.17;1.30;;;;;;;12.71;55.98;98279.53;5068687;28;20103;-83
2021/04/11 06:40:18;;;;;;;2.92;1.20;;;;;;;12.64;56.28;98259.66;5076980;28;20094;-83
2021/04/11 06:43:06;;;;;;;2.35;1.25;;;;;;;12.97;55.72;98283.94;5064141;28;20052;-80
2021/04/11 06:45:36;;;;;;;2.15;1.17;;;;;;;13.35;54.02;98283.00;5056904;28;20060;-80
2021/04/11 06:48:38;;;;;;;3.78;2.10;;;;;;;13.84;52.63;98274.97;5054413;28;20049;-79
2021/04/11 06:51:36;;;;;;;2.15;1.40;;;;;;;14.38;50.83;98258.72;5065844;28;20060;-78
2021/04/11 06:54:40;;;;;;;1.55;1.23;;;;;;;14.40;49.68;98261.22;5059943;28;20482;-80
2021/04/11 06:57:28;;;;;;;4.18;1.17;;;;;;;14.58;49.32;98252.94;5068343;28;20527;-81
2021/04/11 07:00:15;;;;;;;4.25;1.17;;;;;;;14.99;47.56;98255.94;5072303;28;20056;-83
2021/04/11 07:03:25;;;;;;;3.67;1.85;;;;;;;15.32;48.69;98249.88;5057083;28;20543;-84
2021/04/11 07:06:15;;;;;;;3.55;1.08;;;;;;;15.41;47.03;98242.13;5040639;28;20064;-84
2021/04/11 07:09:04;;;;;;;2.30;1.25;;;;;;;15.61;48.81;98252.75;5065022;28;20045;-84
2021/04/11 07:12:10;;;;;;;5.28;1.10;;;;;;;15.41;49.09;98264.06;5058102;28;20106;-80
2021/04/11 07:15:19;;;;;;;2.47;1.48;;;;;;;15.74;47.26;98262.59;5065268;28;20137;-80
2021/04/11 07:18:14;;;;;;;1.80;1.30;;;;;;;15.46;48.52;98264.19;5072011;28;20111;-80
2021/04/11 07:20:58;;;;;;;3.35;1.33;;;;;;;14.96;48.12;98251.75;5071556;28;20052;-81
2021/04/11 07:23:59;;;;;;;4.53;1.73;;;;;;;14.68;50.00;98260.63;5060149;28;20060;-80
2021/04/11 07:27:06;;;;;;;4.60;1.45;;;;;;;14.61;50.59;98273.56;5054731;28;20059;-83
2021/04/11 07:30:04;;;;;;;2.72;1.40;;;;;;;14.56;48.53;98249.63;5051933;28;20143;-83
2021/04/11 07:33:23;;;;;;;2.17;1.55;;;;;;;14.48;49.33;98253.53;5059340;28;20333;-83
2021/04/11 07:39:13;;;;;;;4.40;1.48;;;;;;;14.70;49.33;98269.44;5065982;28;20443;-83
2021/04/11 07:41:56;;;;;;;1.40;1.13;;;;;;;14.64;49.83;98271.19;5060457;28;20620;-83
2021/04/11 07:44:39;;;;;;;4.07;1.23;;;;;;;14.71;50.37;98264.78;5062280;28;20067;-83
2021/04/11 07:47:30;;;;;;;6.15;1.20;;;;;;;14.72;51.57;98272.75;5061586;28;20530;-83
2021/04/11 07:50:17;;;;;;;5.93;1.50;;;;;;;14.92;49.92;98268.88;5061802;28;20063;-83
2021/04/11 07:53:17;;;;;;;1.52;1.02;;;;;;;14.98;51.14;98270.66;5056010;28;20454;-83
2021/04/11 07:55:50;;;;;;;;;;;;;;;15.35;50.04;98282.25;5068924;28;20455;-83
2021/04/11 07:58:38;;;;;;;2.42;1.40;;;;;;;15.31;48.87;98281.09;5066444;28;19928;-84
2021/04/11 08:01:17;;;;;;;8.15;1.35;;;;;;;15.38;49.25;98275.47;5070862;28;20083;-83
2021/04/11 08:04:15;;;;;;;2.83;1.25;;;;;;;15.54;50.59;98282.16;5069027;28;20053;-83
2021/04/11 08:07:15;;;;;;;4.13;1.63;;;;;;;15.52;48.88;98276.94;5048255;28;20049;-82
2021/04/11 08:09:52;;;;;;;5.45;1.52;;;;;;;15.29;50.85;98272.25;5055759;28;20049;-83
2021/04/11 08:13:10;;;;;;;2.72;1.75;;;;;;;15.34;49.33;98280.63;5069742;28;20098;-82
2021/04/11 08:15:51;;;;;;;3.22;1.67;;;;;;;15.39;49.17;98280.72;5032014;28;20048;-84
2021/04/11 08:18:41;;;;;;;1.52;1.20;;;;;;;15.21;49.72;98280.84;5061343;28;20409;-82
2021/04/11 08:21:55;;;;;;;5.68;1.42;;;;;;;15.51;49.24;98267.03;5061452;28;20099;-83
2021/04/11 08:24:47;;;;;;;2.38;1.25;;;;;;;15.65;49.38;98285.97;5027135;28;20053;-82
2021/04/11 08:27:38;;;;;;;1.88;1.33;;;;;;;15.52;48.25;98267.84;5062774;28;20123;-83
2021/04/11 08:30:27;;;;;;;4.40;1.23;;;;;;;15.84;47.42;98289.44;5055311;28;20045;-83
2021/04/11 08:33:43;;;;;;;2.70;1.60;;;;;;;15.97;48.55;98266.41;5009760;28;20075;-82
2021/04/11 08:43:20;;;;;;;1.65;1.15;;;;;;;16.59;46.22;98273.94;5062533;28;20503;-82
2021/04/11 08:46:24;;;;;;;3.65;1.38;;;;;;;16.51;46.67;98271.59;5059526;28;20452;-83
2021/04/11 08:49:05;;;;;;;4.35;1.30;;;;;;;16.29;45.29;98275.03;4999782;28;20053;-83
2021/04/11 08:51:45;;;;;;;2.17;1.27;;;;;;;16.38;45.07;98276.31;5065969;28;20098;-82
2021/04/11 08:54:37;;;;;;;;;;;;;;;;;;;;;
2021/04/11 08:57:21;;;;;;;1.42;0.85;;;;;;;16.15;45.06;98260.75;5056628;28;20415;-82
2021/04/11 09:00:04;;;;;;;2.47;1.27;;;;;;;16.63;45.29;98275.97;5068449;28;20445;-83
2021/04/11 09:03:19;;;;;;;4.38;1.60;;;;;;;16.53;44.07;98252.97;5064137;28;20060;-82
2021/04/11 09:06:22;;;;;;;2.40;1.30;;;;;;;16.01;42.99;98254.72;5030403;28;20041;-81
2021/04/11 09:09:35;;;;;;;;;;;;;;;;;;;;;
2021/04/11 09:25:14;;;;;;;2.70;0.93;;;;;;;16.85;41.90;98255.19;5034135;28;20054;-83
2021/04/11 09:28:08;;;;;;;4.15;1.05;;;;;;;16.66;42.41;98241.69;5041572;28;20048;-84
2021/04/11 09:31:09;;;;;;;3.95;1.30;;;;;;;17.04;43.93;98245.69;5064667;28;20044;-84
2021/04/11 09:33:53;;;;;;;4.75;1.33;;;;;;;17.30;41.90;98252.41;5057056;28;20051;-84
2021/04/11 09:36:27;;;;;;;4.10;1.63;;;;;;;17.46;42.47;98256.22;5047656;28;20495;-84
2021/04/11 09:39:28;;;;;;;3.08;1.88;;;;;;;17.54;41.28;98251.34;5059371;28;20110;-84
2021/04/11 09:42:31;;;;;;;3.47;1.08;;;;;;;17.50;41.29;98251.03;5061471;28;20123;-84
2021/04/11 09:45:37;;;;;;;2.47;1.38;;;;;;;17.50;42.48;98265.59;5062149;28;20045;-84
2021/04/11 09:48:24;;;;;;;4.10;1.33;;;;;;;17.36;41.87;98241.47;5059380;28;20056;-83
2021/04/11 09:51:11;;;;;;;5.38;1.90;;;;;;;17.31;42.85;98256.81;5063693;28;20063;-84
2021/04/11 09:53:50;;;;;;;1.95;1.20;;;;;;;17.19;43.67;98244.25;5066022;28;20072;-84
2021/04/11 09:56:36;;;;;;;3.58;1.30;;;;;;;17.40;42.34;98262.69;5066532;28;20079;-84
2021/04/11 09:59:32;;;;;;;2.03;1.45;;;;;;;17.22;41.44;98243.75;5065602;28;20048;-84
2021/04/11 10:02:10;;;;;;;1.80;1.00;;;;;;;17.10;42.06;98241.94;5069258;28;20390;-84
2021/04/11 10:04:49;;;;;;;3.78;1.30;;;;;;;17.54;41.44;98251.34;5051278;28;20052;-84
2021/04/11 10:07:30;;;;;;;2.35;1.15;;;;;;;17.88;40.73;98243.84;5066911;28;20059;-84
2021/04/11 10:10:09;;;;;;;3.72;1.05;;;;;;;18.03;41.61;98229.50;5063240;28;20417;-84
2021/04/11 10:13:05;;;;;;;9.10;1.60;;;;;;;17.81;40.53;98244.06;5065391;28;20044;-84
2021/04/11 10:15:48;;;;;;;1.13;0.90;;;;;;;18.07;41.56;98243.59;5060261;28;20059;-83
2021/04/11 10:19:07;;;;;;;4.13;1.00;;;;;;;18.12;41.60;98213.38;5060598;28;20056;-83
2021/04/11 10:21:46;;;;;;;1.90;1.30;;;;;;;18.22;40.31;98232.75;5057460;28;20122;-84
2021/04/11 10:24:31;;;;;;;3.53;0.98;;;;;;;17.69;41.15;98213.94;5062513;28;20048;-84
2021/04/11 10:27:06;;;;;;;1.10;0.90;;;;;;;18.10;40.25;98238.41;5070276;28;20539;-84
2021/04/11 10:29:35;;;;;;;3.33;1.00;;;;;;;18.35;41.04;98224.13;5057257;28;20587;-85
2021/04/11 10:32:29;;;;;;;1.30;0.63;;;;;;;17.90;39.79;98202.41;5064966;28;20044;-85
2021/04/11 10:35:06;;;;;;;1.38;0.75;;;;;;;17.65;39.15;98223.78;5063293;28;20059;-83
2021/04/11 10:37:40;;;;;;;2.03;0.75;;;;;;;17.98;40.64;98221.22;5064232;28;20048;-83
2021/04/11 10:40:27;;;;;;;2.85;0.80;;;;;;;18.24;41.56;98213.25;5051156;28;20049;-83
2021/04/11 10:43:09;;;;;;;3.90;0.90;;;;;;;18.16;41.63;98192.53;5069197;28;20505;-84
2021/04/11 10:45:56;;;;;;;0.73;0.60;;;;;;;18.18;40.77;98215.09;5063403;28;20045;-83
2021/04/11 10:48:39;;;;;;;1.08;0.80;;;;;;;18.13;41.64;98206.81;5066473;28;20072;-83
2021/04/11 10:51:23;;;;;;;1.95;0.70;;;;;;;18.14;39.49;98209.31;5051034;28;20075;-83
2021/04/11 10:54:06;;;;;;;3.60;0.70;;;;;;;17.97;39.54;98201.09;5071295;28;20405;-84
2021/04/11 10:56:44;;;;;;;3.60;0.70;;;;;;;17.59;39.84;98200.06;5063307;28;20055;-85
2021/04/11 10:59:39;;;;;;;3.95;1.60;;;;;;;17.25;40.46;98202.88;5066210;28;20543;-84
2021/04/11 11:02:28;;;;;;;1.60;0.70;;;;;;;17.24;40.75;98211.38;5043449;28;20056;-84
2021/04/11 11:05:30;;;;;;;0.98;0.60;;;;;;;16.97;41.57;98207.38;5070472;28;20120;-82
2021/04/11 11:08:15;;;;;;;5.35;0.80;;;;;;;16.84;41.47;98202.19;5040235;28;20069;-83
2021/04/11 11:10:56;;;;;;;1.98;0.73;;;;;;;16.79;42.85;98199.38;5065178;28;20409;-83
2021/04/11 11:13:38;;;;;;;3.55;0.85;;;;;;;16.89;43.75;98213.31;5055805;28;20048;-83
2021/04/11 11:16:13;;;;;;;0.98;0.70;;;;;;;16.75;42.29;98192.72;5058674;28;20052;-83
2021/04/11 11:19:09;;;;;;;3.03;1.08;;;;;;;16.70;41.14;98207.19;5075497;28;20052;-83
2021/04/11 11:21:51;;;;;;;1.95;1.00;;;;;;;16.67;41.11;98210.44;5049051;28;20056;-82
2021/04/11 11:24:34;;;;;;;3.90;1.05;;;;;;;16.66;40.94;98210.69;5075043;28;20059;-82
2021/04/11 11:27:53;;;;;;;5.55;1.60;;;;;;;16.73;41.80;98208.63;5073923;28;20136;-82
2021/04/11 11:30:28;;;;;;;2.55;0.90;;;;;;;16.60;41.59;98196.03;5035548;28;20044;-83
2021/04/11 11:33:30;;;;;;;2.00;1.20;;;;;;;16.57;41.03;98202.00;5057231;28;20103;-81
2021/04/11 11:36:09;;;;;;;3.40;1.20;;;;;;;16.46;41.91;98196.34;5060827;28;20052;-84
2021/04/11 11:38:49;;;;;;;0.93;0.57;;;;;;;16.58;43.42;98212.75;5059560;28;20060;-83
2021/04/11 11:41:24;;;;;;;5.40;1.15;;;;;;;16.59;45.05;98217.16;5055312;28;20053;-83
2021/04/11 11:44:00;;;;;;;1.08;0.70;;;;;;;16.54;44.83;98202.50;5071630;28;20129;-83
2021/04/11 11:46:39;;;;;;;1.08;0.70;;;;;;;16.53;44.67;98211.81;5054864;28;20390;-83
2021/04/11 11:49:16;;;;;;;0.75;0.75;;;;;;;16.63;45.25;98226.56;5055051;28;20049;-83
2021/04/11 11:51:52;;;;;;;4.95;1.17;;;;;;;16.66;49.50;98222.47;5061413;28;20477;-83
2021/04/11 11:54:25;;;;;;;2.60;1.10;;;;;;;16.70;49.09;98225.56;5054265;28;20048;-83
2021/04/11 11:57:06;;;;;;;2.88;0.90;;;;;;;16.67;49.31;98220.59;5062582;28;20052;-83
2021/04/11 11:59:38;;;;;;;4.53;0.90;;;;;;;16.40;49.03;98202.00;5054599;28;20044;-83
2021/04/11 12:02:19;;;;;;;2.28;1.05;;;;;;;16.39;48.01;98205.81;5059127;28;20059;-83
2021/04/11 12:04:56;;;;;;;2.17;0.77;;;;;;;16.54;47.01;98202.50;5066766;28;20060;-83
2021/04/11 12:07:29;;;;;;;2.05;0.80;;;;;;;16.76;46.16;98230.06;5065844;28;20052;-83
2021/04/11 12:10:15;;;;;;;2.05;0.85;;;;;;;16.94;46.54;98209.81;5071190;28;20045;-83
2021/04/11 12:12:52;;;;;;;2.35;0.68;;;;;;;17.35;45.13;98196.69;5068536;28;20049;-83
2021/04/11 12:15:25;;;;;;;2.00;0.80;;;;;;;17.52;44.21;98194.75;5065977;28;20044;-83
2021/04/11 12:17:59;;;;;;;2.83;0.80;;;;;;;17.90;43.80;98184.00;5059840;28;20193;-83
2021/04/11 12:20:33;;;;;;;1.20;0.75;;;;;;;17.91;43.67;98177.38;5063856;28;20497;-84
2021/04/11 12:23:05;;;;;;;3.22;1.00;;;;;;;17.95;42.70;98188.72;5060059;28;20053;-83
2021/04/11 12:25:35;;;;;;;0.73;0.50;;;;;;;17.82;41.94;98171.47;5062171;28;20052;-83
2021/04/11 12:28:11;;;;;;;3.42;0.80;;;;;;;17.89;43.05;98170.47;5064142;28;20052;-84
2021/04/11 12:30:39;;;;;;;1.90;1.48;;;;;;;18.13;41.43;98169.13;5074507;28;20485;-83
2021/04/11 12:33:18;;;;;;;2.17;0.90;;;;;;;17.92;41.68;98164.50;5074566;28;20409;-84
2021/04/11 12:35:56;;;;;;;1.75;0.85;;;;;;;18.70;41.40;98187.00;5073483;28;20067;-83
2021/04/11 12:38:30;;;;;;;0.77;0.77;;;;;;;18.72;41.18;98189.50;5066311;28;20044;-84
2021/04/11 12:41:03;;;;;;;1.60;0.70;;;;;;;18.50;41.97;98178.56;5068355;28;20432;-84
2021/04/11 12:43:40;;;;;;;2.80;0.90;;;;;;;18.75;41.69;98176.03;5073945;28;20048;-84
2021/04/11 12:46:16;;;;;;;1.75;1.20;;;;;;;18.82;40.84;98175.84;5073212;28;20076;-84
2021/04/11 12:48:55;;;;;;;1.67;1.10;;;;;;;19.13;40.02;98155.97;5057104;28;20056;-82
2021/04/11 12:51:29;;;;;;;1.58;0.70;;;;;;;19.49;38.00;98175.47;5070996;28;20056;-82
2021/04/11 12:54:10;;;;;;;1.88;0.80;;;;;;;18.96;39.67;98169.91;5069379;28;20056;-82
2021/04/11 12:56:41;;;;;;;3.42;0.90;;;;;;;18.47;40.05;98173.56;5073632;28;20055;-83
2021/04/11 12:59:20;;;;;;;0.75;0.50;;;;;;;18.45;40.81;98171.09;5068918;28;20127;-83
2021/04/11 13:01:49;;;;;;;4.03;0.95;;;;;;;18.00;40.91;98162.09;5053201;28;20072;-83
2021/04/11 13:04:25;;;;;;;2.03;1.55;;;;;;;18.14;40.67;98161.69;5064324;28;20052;-83
2021/04/11 13:06:58;;;;;;;5.35;1.08;;;;;;;18.38;40.69;98175.97;5057851;28;20052;-83
2021/04/11 13:09:45;;;;;;;1.25;0.75;;;;;;;18.32;40.30;98158.59;5055264;28;20138;-83
2021/04/11 13:12:24;;;;;;;1.33;1.02;;;;;;;18.46;40.80;98153.50;5058208;28;20066;-83
2021/04/11 13:15:02;;;;;;;3.90;1.20;;;;;;;18.56;40.63;98152.75;5057627;28;20745;-84
2021/04/11 13:17:38;;;;;;;1.05;0.88;;;;;;;18.63;41.64;98175.38;5061731;28;20049;-83
2021/04/11 13:20:15;;;;;;;0.70;0.70;;;;;;;18.65;41.36;98151.19;5066624;28;20370;-83
2021/04/11 13:22:48;;;;;;;2.58;0.80;;;;;;;18.56;41.55;98155.50;5072846;28;20060;-84
2021/04/11 13:25:23;;;;;;;2.67;0.80;;;;;;;18.54;41.82;98168.69;5060936;28;20048;-83